Rhuddlan, United Kingdom
Current Conditions -  °F | °C
As of 2:20 PM on Sunday 21 Dec 2014 (Local Time) from EGNR Reporting Station
Few Clouds Few Clouds  
Wind Chill: 54°   Ceiling: Unl
Heat Index: 54°   Visibility: 6mi
Dew Point: 46°   Wind: 30mph
Humidity: 77%   Direction: 230°SW
Pressure: 30.06"   Gusts: 45mph
Location:  53.28°N, 3.47°W
Report Text: EGNR 211420Z 23026G39KT 9999 FEW020 12/08 Q1018
Loading
Personal Weather Stations






























Interactive Weather Map New forecast layout! Learn more

10-Day Weather Forecast

Advertisements
Track Severe Weather on mobile